sensor_id;sensor_type;location;lat;lon;timestamp;temperature;humidity
41720;DHT22;27405;53.316;-6.294;2023-11-21T00:01:24;8.50;99.90
41720;DHT22;27405;53.316;-6.294;2023-11-21T00:03:50;8.50;99.90
41720;DHT22;27405;53.316;-6.294;2023-11-21T00:06:20;8.50;99.90
41720;DHT22;27405;53.316;-6.294;2023-11-21T00:08:46;8.50;99.90
41720;DHT22;27405;53.316;-6.294;2023-11-21T00:11:12;8.50;99.90
41720;DHT22;27405;53.316;-6.294;2023-11-21T00:13:38;8.50;99.90
41720;DHT22;27405;53.316;-6.294;2023-11-21T00:16:05;8.40;99.90
41720;DHT22;27405;53.316;-6.294;2023-11-21T00:18:31;8.40;99.90
41720;DHT22;27405;53.316;-6.294;2023-11-21T00:20:57;8.40;99.90
41720;DHT22;27405;53.316;-6.294;2023-11-21T00:23:24;8.40;99.90
41720;DHT22;27405;53.316;-6.294;2023-11-21T00:25:51;8.40;99.90
41720;DHT22;27405;53.316;-6.294;2023-11-21T00:28:17;8.40;99.90
41720;DHT22;27405;53.316;-6.294;2023-11-21T00:30:43;8.30;99.90
41720;DHT22;27405;53.316;-6.294;2023-11-21T00:33:09;8.30;99.90
41720;DHT22;27405;53.316;-6.294;2023-11-21T00:35:35;8.30;99.90
41720;DHT22;27405;53.316;-6.294;2023-11-21T00:38:01;8.30;99.90
41720;DHT22;27405;53.316;-6.294;2023-11-21T00:40:29;8.30;99.90
41720;DHT22;27405;53.316;-6.294;2023-11-21T00:42:56;8.30;99.90
41720;DHT22;27405;53.316;-6.294;2023-11-21T00:45:23;8.30;99.90
41720;DHT22;27405;53.316;-6.294;2023-11-21T00:47:49;8.20;99.90
41720;DHT22;27405;53.316;-6.294;2023-11-21T00:50:15;8.20;99.90
41720;DHT22;27405;53.316;-6.294;2023-11-21T00:52:41;8.20;99.90
41720;DHT22;27405;53.316;-6.294;2023-11-21T00:58:29;8.20;99.90
41720;DHT22;27405;53.316;-6.294;2023-11-21T01:00:56;8.10;99.90
41720;DHT22;27405;53.316;-6.294;2023-11-21T01:03:22;8.10;99.90
41720;DHT22;27405;53.316;-6.294;2023-11-21T01:05:48;8.10;99.90
41720;DHT22;27405;53.316;-6.294;2023-11-21T01:08:15;8.10;99.90
41720;DHT22;27405;53.316;-6.294;2023-11-21T01:10:41;8.00;99.90
41720;DHT22;27405;53.316;-6.294;2023-11-21T01:13:07;8.00;99.90
41720;DHT22;27405;53.316;-6.294;2023-11-21T01:15:34;8.00;99.90
41720;DHT22;27405;53.316;-6.294;2023-11-21T01:18:00;8.00;99.90
41720;DHT22;27405;53.316;-6.294;2023-11-21T01:20:26;7.90;99.90
41720;DHT22;27405;53.316;-6.294;2023-11-21T01:22:52;8.00;99.90
41720;DHT22;27405;53.316;-6.294;2023-11-21T01:25:19;7.90;99.90
41720;DHT22;27405;53.316;-6.294;2023-11-21T01:27:46;7.90;99.90
41720;DHT22;27405;53.316;-6.294;2023-11-21T01:30:13;7.90;99.90
41720;DHT22;27405;53.316;-6.294;2023-11-21T01:32:39;7.90;99.90
41720;DHT22;27405;53.316;-6.294;2023-11-21T01:35:06;7.90;99.90
41720;DHT22;27405;53.316;-6.294;2023-11-21T01:37:32;7.90;99.90
41720;DHT22;27405;53.316;-6.294;2023-11-21T01:39:59;7.80;99.90
41720;DHT22;27405;53.316;-6.294;2023-11-21T01:42:26;7.80;99.90
41720;DHT22;27405;53.316;-6.294;2023-11-21T01:44:55;7.80;99.90
41720;DHT22;27405;53.316;-6.294;2023-11-21T01:47:21;7.80;99.90
41720;DHT22;27405;53.316;-6.294;2023-11-21T01:49:47;7.80;99.90
41720;DHT22;27405;53.316;-6.294;2023-11-21T01:52:13;7.80;99.90
41720;DHT22;27405;53.316;-6.294;2023-11-21T01:54:41;7.80;99.90
41720;DHT22;27405;53.316;-6.294;2023-11-21T01:57:08;7.80;99.90
41720;DHT22;27405;53.316;-6.294;2023-11-21T01:59:35;7.80;99.90
41720;DHT22;27405;53.316;-6.294;2023-11-21T02:02:06;7.70;99.90
41720;DHT22;27405;53.316;-6.294;2023-11-21T02:04:34;7.70;99.90
41720;DHT22;27405;53.316;-6.294;2023-11-21T02:07:00;7.70;99.90
41720;DHT22;27405;53.316;-6.294;2023-11-21T02:09:27;7.70;99.90
41720;DHT22;27405;53.316;-6.294;2023-11-21T02:11:54;7.70;99.90
41720;DHT22;27405;53.316;-6.294;2023-11-21T02:14:21;7.70;99.90
41720;DHT22;27405;53.316;-6.294;2023-11-21T02:16:50;7.70;99.90
41720;DHT22;27405;53.316;-6.294;2023-11-21T02:19:19;7.60;99.90
41720;DHT22;27405;53.316;-6.294;2023-11-21T02:21:50;7.60;99.90
41720;DHT22;27405;53.316;-6.294;2023-11-21T02:24:20;7.50;99.90
41720;DHT22;27405;53.316;-6.294;2023-11-21T02:26:47;7.60;99.90
41720;DHT22;27405;53.316;-6.294;2023-11-21T02:29:14;7.60;99.90
41720;DHT22;27405;53.316;-6.294;2023-11-21T02:31:43;7.50;99.90
41720;DHT22;27405;53.316;-6.294;2023-11-21T02:34:17;7.50;99.90
41720;DHT22;27405;53.316;-6.294;2023-11-21T02:36:44;7.50;99.90
41720;DHT22;27405;53.316;-6.294;2023-11-21T02:39:10;7.50;99.90
41720;DHT22;27405;53.316;-6.294;2023-11-21T02:41:39;7.50;99.90
41720;DHT22;27405;53.316;-6.294;2023-11-21T02:44:06;7.50;99.90
41720;DHT22;27405;53.316;-6.294;2023-11-21T02:46:36;7.40;99.90
41720;DHT22;27405;53.316;-6.294;2023-11-21T02:49:03;7.30;99.90
41720;DHT22;27405;53.316;-6.294;2023-11-21T02:51:30;7.30;99.90
41720;DHT22;27405;53.316;-6.294;2023-11-21T02:53:56;7.20;99.90
41720;DHT22;27405;53.316;-6.294;2023-11-21T02:56:26;7.20;99.90
41720;DHT22;27405;53.316;-6.294;2023-11-21T02:58:55;7.10;99.90
41720;DHT22;27405;53.316;-6.294;2023-11-21T03:01:21;7.10;99.90
41720;DHT22;27405;53.316;-6.294;2023-11-21T03:03:47;7.10;99.90
41720;DHT22;27405;53.316;-6.294;2023-11-21T03:06:20;7.00;99.90
41720;DHT22;27405;53.316;-6.294;2023-11-21T03:08:46;7.00;99.90
41720;DHT22;27405;53.316;-6.294;2023-11-21T03:11:13;7.00;99.90
41720;DHT22;27405;53.316;-6.294;2023-11-21T03:13:40;6.90;99.90
41720;DHT22;27405;53.316;-6.294;2023-11-21T03:16:08;6.90;99.90
41720;DHT22;27405;53.316;-6.294;2023-11-21T03:18:34;6.80;99.90
41720;DHT22;27405;53.316;-6.294;2023-11-21T03:21:01;6.80;99.90
41720;DHT22;27405;53.316;-6.294;2023-11-21T03:23:28;6.80;99.90
41720;DHT22;27405;53.316;-6.294;2023-11-21T03:25:54;6.80;99.90
41720;DHT22;27405;53.316;-6.294;2023-11-21T03:28:20;6.70;99.90
41720;DHT22;27405;53.316;-6.294;2023-11-21T03:30:46;6.70;99.90
41720;DHT22;27405;53.316;-6.294;2023-11-21T03:33:12;6.70;99.90
41720;DHT22;27405;53.316;-6.294;2023-11-21T03:35:38;6.70;99.90
41720;DHT22;27405;53.316;-6.294;2023-11-21T03:38:04;6.70;99.90
41720;DHT22;27405;53.316;-6.294;2023-11-21T03:40:30;6.70;99.90
41720;DHT22;27405;53.316;-6.294;2023-11-21T03:42:57;6.70;99.90
41720;DHT22;27405;53.316;-6.294;2023-11-21T03:45:23;6.70;99.90
41720;DHT22;27405;53.316;-6.294;2023-11-21T03:47:50;6.70;99.90
41720;DHT22;27405;53.316;-6.294;2023-11-21T03:50:16;6.70;99.90
41720;DHT22;27405;53.316;-6.294;2023-11-21T03:52:42;6.70;99.90
41720;DHT22;27405;53.316;-6.294;2023-11-21T03:55:08;6.70;99.90
41720;DHT22;27405;53.316;-6.294;2023-11-21T03:57:34;6.70;99.90
41720;DHT22;27405;53.316;-6.294;2023-11-21T04:00:01;6.70;99.90
41720;DHT22;27405;53.316;-6.294;2023-11-21T04:02:29;6.70;99.90
41720;DHT22;27405;53.316;-6.294;2023-11-21T04:04:57;6.70;99.90
41720;DHT22;27405;53.316;-6.294;2023-11-21T04:07:23;6.60;99.90
41720;DHT22;27405;53.316;-6.294;2023-11-21T04:09:49;6.60;99.90
41720;DHT22;27405;53.316;-6.294;2023-11-21T04:12:15;6.70;99.90
41720;DHT22;27405;53.316;-6.294;2023-11-21T04:14:41;6.60;99.90
41720;DHT22;27405;53.316;-6.294;2023-11-21T04:17:07;6.70;99.90
41720;DHT22;27405;53.316;-6.294;2023-11-21T04:19:34;6.70;99.90
41720;DHT22;27405;53.316;-6.294;2023-11-21T04:22:00;6.70;99.90
41720;DHT22;27405;53.316;-6.294;2023-11-21T04:24:26;6.80;99.90
41720;DHT22;27405;53.316;-6.294;2023-11-21T04:26:52;6.80;99.90
41720;DHT22;27405;53.316;-6.294;2023-11-21T04:29:19;6.80;99.90
41720;DHT22;27405;53.316;-6.294;2023-11-21T04:35:08;6.80;99.90
41720;DHT22;27405;53.316;-6.294;2023-11-21T04:37:37;6.80;99.90
41720;DHT22;27405;53.316;-6.294;2023-11-21T04:40:04;6.80;99.90
41720;DHT22;27405;53.316;-6.294;2023-11-21T04:42:36;6.80;99.90
41720;DHT22;27405;53.316;-6.294;2023-11-21T04:48:24;6.90;99.90
41720;DHT22;27405;53.316;-6.294;2023-11-21T04:50:50;6.80;99.90
41720;DHT22;27405;53.316;-6.294;2023-11-21T04:53:17;6.90;99.90
41720;DHT22;27405;53.316;-6.294;2023-11-21T04:55:43;6.90;99.90
41720;DHT22;27405;53.316;-6.294;2023-11-21T04:58:10;6.90;99.90
41720;DHT22;27405;53.316;-6.294;2023-11-21T05:00:37;6.90;99.90
41720;DHT22;27405;53.316;-6.294;2023-11-21T05:03:04;6.90;99.90
41720;DHT22;27405;53.316;-6.294;2023-11-21T05:05:30;6.90;99.90
41720;DHT22;27405;53.316;-6.294;2023-11-21T05:07:56;6.90;99.90
41720;DHT22;27405;53.316;-6.294;2023-11-21T05:10:22;6.90;99.90
41720;DHT22;27405;53.316;-6.294;2023-11-21T05:12:49;6.90;99.90
41720;DHT22;27405;53.316;-6.294;2023-11-21T05:15:16;6.90;99.90
41720;DHT22;27405;53.316;-6.294;2023-11-21T05:17:46;6.90;99.90
41720;DHT22;27405;53.316;-6.294;2023-11-21T05:20:15;6.90;99.90
41720;DHT22;27405;53.316;-6.294;2023-11-21T05:22:49;6.90;99.90
41720;DHT22;27405;53.316;-6.294;2023-11-21T05:28:37;7.00;99.90
41720;DHT22;27405;53.316;-6.294;2023-11-21T05:31:03;7.00;99.90
41720;DHT22;27405;53.316;-6.294;2023-11-21T05:33:29;7.00;99.90
41720;DHT22;27405;53.316;-6.294;2023-11-21T05:35:55;6.90;99.90
41720;DHT22;27405;53.316;-6.294;2023-11-21T05:38:21;6.90;99.90
41720;DHT22;27405;53.316;-6.294;2023-11-21T05:40:47;6.90;99.90
41720;DHT22;27405;53.316;-6.294;2023-11-21T05:43:13;6.90;99.90
41720;DHT22;27405;53.316;-6.294;2023-11-21T05:45:41;6.90;99.90
41720;DHT22;27405;53.316;-6.294;2023-11-21T05:48:07;6.90;99.90
41720;DHT22;27405;53.316;-6.294;2023-11-21T05:50:33;6.90;99.90
41720;DHT22;27405;53.316;-6.294;2023-11-21T05:52:59;7.00;99.90
41720;DHT22;27405;53.316;-6.294;2023-11-21T05:55:26;7.00;99.90
41720;DHT22;27405;53.316;-6.294;2023-11-21T05:57:52;7.00;99.90
41720;DHT22;27405;53.316;-6.294;2023-11-21T06:00:18;6.90;99.90
41720;DHT22;27405;53.316;-6.294;2023-11-21T06:02:47;7.00;99.90
41720;DHT22;27405;53.316;-6.294;2023-11-21T06:08:37;7.00;99.90
41720;DHT22;27405;53.316;-6.294;2023-11-21T06:11:03;7.00;99.90
41720;DHT22;27405;53.316;-6.294;2023-11-21T06:13:30;7.00;99.90
41720;DHT22;27405;53.316;-6.294;2023-11-21T06:15:56;6.90;99.90
41720;DHT22;27405;53.316;-6.294;2023-11-21T06:18:22;6.90;99.90
41720;DHT22;27405;53.316;-6.294;2023-11-21T06:20:48;6.90;99.90
41720;DHT22;27405;53.316;-6.294;2023-11-21T06:23:14;6.80;99.90
41720;DHT22;27405;53.316;-6.294;2023-11-21T06:25:40;6.80;99.90
41720;DHT22;27405;53.316;-6.294;2023-11-21T06:31:28;6.80;99.90
41720;DHT22;27405;53.316;-6.294;2023-11-21T06:33:54;6.80;99.90
41720;DHT22;27405;53.316;-6.294;2023-11-21T06:36:21;6.80;99.90
41720;DHT22;27405;53.316;-6.294;2023-11-21T06:38:46;6.80;99.90
41720;DHT22;27405;53.316;-6.294;2023-11-21T06:41:13;6.70;99.90
41720;DHT22;27405;53.316;-6.294;2023-11-21T06:43:41;6.70;99.90
41720;DHT22;27405;53.316;-6.294;2023-11-21T06:46:12;6.70;99.90
41720;DHT22;27405;53.316;-6.294;2023-11-21T06:48:43;6.70;99.90
41720;DHT22;27405;53.316;-6.294;2023-11-21T06:51:09;6.70;99.90
41720;DHT22;27405;53.316;-6.294;2023-11-21T06:53:37;6.70;99.90
41720;DHT22;27405;53.316;-6.294;2023-11-21T06:56:03;6.60;99.90
41720;DHT22;27405;53.316;-6.294;2023-11-21T06:58:30;6.60;99.90
41720;DHT22;27405;53.316;-6.294;2023-11-21T07:00:56;6.60;99.90
41720;DHT22;27405;53.316;-6.294;2023-11-21T07:03:24;6.60;99.90
41720;DHT22;27405;53.316;-6.294;2023-11-21T07:05:51;6.50;99.90
41720;DHT22;27405;53.316;-6.294;2023-11-21T07:08:17;6.50;99.90
41720;DHT22;27405;53.316;-6.294;2023-11-21T07:10:42;6.50;99.90
41720;DHT22;27405;53.316;-6.294;2023-11-21T07:13:08;6.40;99.90
41720;DHT22;27405;53.316;-6.294;2023-11-21T07:15:38;6.40;99.90
41720;DHT22;27405;53.316;-6.294;2023-11-21T07:18:04;6.40;99.90
41720;DHT22;27405;53.316;-6.294;2023-11-21T07:20:33;6.40;99.90
41720;DHT22;27405;53.316;-6.294;2023-11-21T07:22:59;6.40;99.90
41720;DHT22;27405;53.316;-6.294;2023-11-21T07:25:25;6.30;99.90
41720;DHT22;27405;53.316;-6.294;2023-11-21T07:27:52;6.30;99.90
41720;DHT22;27405;53.316;-6.294;2023-11-21T07:30:21;6.30;99.90
41720;DHT22;27405;53.316;-6.294;2023-11-21T07:32:48;6.30;99.90
41720;DHT22;27405;53.316;-6.294;2023-11-21T07:35:14;6.30;99.90
41720;DHT22;27405;53.316;-6.294;2023-11-21T07:37:40;6.30;99.90
41720;DHT22;27405;53.316;-6.294;2023-11-21T07:40:07;6.30;99.90
41720;DHT22;27405;53.316;-6.294;2023-11-21T07:42:34;6.30;99.90
41720;DHT22;27405;53.316;-6.294;2023-11-21T07:45:00;6.30;99.90
41720;DHT22;27405;53.316;-6.294;2023-11-21T07:47:26;6.30;99.90
41720;DHT22;27405;53.316;-6.294;2023-11-21T07:49:53;6.30;99.90
41720;DHT22;27405;53.316;-6.294;2023-11-21T07:52:22;6.30;99.90
41720;DHT22;27405;53.316;-6.294;2023-11-21T07:58:09;6.30;99.90
41720;DHT22;27405;53.316;-6.294;2023-11-21T08:00:35;6.20;99.90
41720;DHT22;27405;53.316;-6.294;2023-11-21T08:03:03;6.20;99.90
41720;DHT22;27405;53.316;-6.294;2023-11-21T08:05:29;6.20;99.90
41720;DHT22;27405;53.316;-6.294;2023-11-21T08:07:55;6.20;99.90
41720;DHT22;27405;53.316;-6.294;2023-11-21T08:10:21;6.20;99.90
41720;DHT22;27405;53.316;-6.294;2023-11-21T08:12:47;6.20;99.90
41720;DHT22;27405;53.316;-6.294;2023-11-21T08:15:14;6.20;99.90
41720;DHT22;27405;53.316;-6.294;2023-11-21T08:17:40;6.20;99.90
41720;DHT22;27405;53.316;-6.294;2023-11-21T08:20:06;6.20;99.90
41720;DHT22;27405;53.316;-6.294;2023-11-21T08:22:34;6.20;99.90
41720;DHT22;27405;53.316;-6.294;2023-11-21T08:25:00;6.20;99.90
41720;DHT22;27405;53.316;-6.294;2023-11-21T08:27:26;6.20;99.90
41720;DHT22;27405;53.316;-6.294;2023-11-21T08:29:52;6.20;99.90
41720;DHT22;27405;53.316;-6.294;2023-11-21T08:32:18;6.20;99.90
41720;DHT22;27405;53.316;-6.294;2023-11-21T08:34:44;6.20;99.90
41720;DHT22;27405;53.316;-6.294;2023-11-21T08:37:11;6.20;99.90
41720;DHT22;27405;53.316;-6.294;2023-11-21T08:39:37;6.30;99.90
41720;DHT22;27405;53.316;-6.294;2023-11-21T08:42:04;6.30;99.90
41720;DHT22;27405;53.316;-6.294;2023-11-21T08:44:30;6.30;99.90
41720;DHT22;27405;53.316;-6.294;2023-11-21T08:46:56;6.30;99.90
41720;DHT22;27405;53.316;-6.294;2023-11-21T08:49:22;6.30;99.90
41720;DHT22;27405;53.316;-6.294;2023-11-21T08:51:48;6.40;99.90
41720;DHT22;27405;53.316;-6.294;2023-11-21T08:54:14;6.40;99.90
41720;DHT22;27405;53.316;-6.294;2023-11-21T08:56:40;6.40;99.90
41720;DHT22;27405;53.316;-6.294;2023-11-21T08:59:06;6.50;99.90
41720;DHT22;27405;53.316;-6.294;2023-11-21T09:01:33;6.50;99.90
41720;DHT22;27405;53.316;-6.294;2023-11-21T09:03:59;6.50;99.90
41720;DHT22;27405;53.316;-6.294;2023-11-21T09:06:25;6.50;99.90
41720;DHT22;27405;53.316;-6.294;2023-11-21T09:08:51;6.50;99.90
41720;DHT22;27405;53.316;-6.294;2023-11-21T09:14:53;6.60;99.90
41720;DHT22;27405;53.316;-6.294;2023-11-21T09:17:19;6.60;99.90
41720;DHT22;27405;53.316;-6.294;2023-11-21T09:19:45;6.60;99.90
41720;DHT22;27405;53.316;-6.294;2023-11-21T09:22:16;6.60;99.90
41720;DHT22;27405;53.316;-6.294;2023-11-21T09:24:42;6.60;99.90
41720;DHT22;27405;53.316;-6.294;2023-11-21T09:27:08;6.60;99.90
41720;DHT22;27405;53.316;-6.294;2023-11-21T09:29:35;6.70;99.90
41720;DHT22;27405;53.316;-6.294;2023-11-21T09:32:04;6.70;99.90
41720;DHT22;27405;53.316;-6.294;2023-11-21T09:34:34;6.70;99.90
41720;DHT22;27405;53.316;-6.294;2023-11-21T09:37:04;6.80;99.90
41720;DHT22;27405;53.316;-6.294;2023-11-21T09:39:32;6.80;99.90
41720;DHT22;27405;53.316;-6.294;2023-11-21T09:47:12;6.90;99.90
41720;DHT22;27405;53.316;-6.294;2023-11-21T09:49:45;6.90;99.90
41720;DHT22;27405;53.316;-6.294;2023-11-21T09:52:22;6.90;99.90
41720;DHT22;27405;53.316;-6.294;2023-11-21T09:58:11;7.00;99.90
41720;DHT22;27405;53.316;-6.294;2023-11-21T10:00:44;7.10;99.90
41720;DHT22;27405;53.316;-6.294;2023-11-21T10:03:11;7.00;99.90
41720;DHT22;27405;53.316;-6.294;2023-11-21T10:05:38;7.10;99.90
41720;DHT22;27405;53.316;-6.294;2023-11-21T10:08:11;7.10;99.90
41720;DHT22;27405;53.316;-6.294;2023-11-21T10:10:38;7.10;99.90
41720;DHT22;27405;53.316;-6.294;2023-11-21T10:13:12;7.20;99.90
41720;DHT22;27405;53.316;-6.294;2023-11-21T10:15:38;7.30;99.90
41720;DHT22;27405;53.316;-6.294;2023-11-21T10:18:10;7.30;99.90
41720;DHT22;27405;53.316;-6.294;2023-11-21T10:20:36;7.30;99.90
41720;DHT22;27405;53.316;-6.294;2023-11-21T10:23:05;7.40;99.90
41720;DHT22;27405;53.316;-6.294;2023-11-21T10:25:33;7.40;99.90
41720;DHT22;27405;53.316;-6.294;2023-11-21T10:28:01;7.40;99.90
41720;DHT22;27405;53.316;-6.294;2023-11-21T10:30:33;7.50;99.90
41720;DHT22;27405;53.316;-6.294;2023-11-21T10:32:59;7.50;99.90
41720;DHT22;27405;53.316;-6.294;2023-11-21T10:35:39;7.60;99.90
41720;DHT22;27405;53.316;-6.294;2023-11-21T10:38:06;7.60;99.90
41720;DHT22;27405;53.316;-6.294;2023-11-21T10:40:33;7.70;99.90
41720;DHT22;27405;53.316;-6.294;2023-11-21T10:43:09;7.70;99.90
41720;DHT22;27405;53.316;-6.294;2023-11-21T10:45:39;7.70;99.90
41720;DHT22;27405;53.316;-6.294;2023-11-21T10:48:14;7.80;99.90
41720;DHT22;27405;53.316;-6.294;2023-11-21T10:50:42;7.80;99.90
41720;DHT22;27405;53.316;-6.294;2023-11-21T10:53:08;7.90;99.90
41720;DHT22;27405;53.316;-6.294;2023-11-21T10:55:35;8.00;99.90
41720;DHT22;27405;53.316;-6.294;2023-11-21T10:58:02;8.00;99.90
41720;DHT22;27405;53.316;-6.294;2023-11-21T11:00:31;8.10;99.90
41720;DHT22;27405;53.316;-6.294;2023-11-21T11:02:58;8.10;99.90
41720;DHT22;27405;53.316;-6.294;2023-11-21T11:05:26;8.20;99.90
41720;DHT22;27405;53.316;-6.294;2023-11-21T11:08:05;8.20;99.90
41720;DHT22;27405;53.316;-6.294;2023-11-21T11:10:32;8.30;99.90
41720;DHT22;27405;53.316;-6.294;2023-11-21T11:12:58;8.30;99.90
41720;DHT22;27405;53.316;-6.294;2023-11-21T11:15:26;8.30;99.90
41720;DHT22;27405;53.316;-6.294;2023-11-21T11:21:27;8.40;99.90
41720;DHT22;27405;53.316;-6.294;2023-11-21T11:27:37;8.50;99.90
41720;DHT22;27405;53.316;-6.294;2023-11-21T11:38:45;8.80;99.90
41720;DHT22;27405;53.316;-6.294;2023-11-21T11:41:12;8.90;99.90
41720;DHT22;27405;53.316;-6.294;2023-11-21T11:43:38;9.00;99.90
41720;DHT22;27405;53.316;-6.294;2023-11-21T11:46:11;9.10;99.90
41720;DHT22;27405;53.316;-6.294;2023-11-21T11:48:40;9.20;99.90
41720;DHT22;27405;53.316;-6.294;2023-11-21T11:51:10;9.30;99.90
41720;DHT22;27405;53.316;-6.294;2023-11-21T11:53:44;9.40;99.90
41720;DHT22;27405;53.316;-6.294;2023-11-21T11:56:23;9.50;99.90
41720;DHT22;27405;53.316;-6.294;2023-11-21T11:58:53;9.50;99.90
41720;DHT22;27405;53.316;-6.294;2023-11-21T12:01:20;9.60;99.90
41720;DHT22;27405;53.316;-6.294;2023-11-21T12:06:51;9.70;99.90
41720;DHT22;27405;53.316;-6.294;2023-11-21T12:09:20;9.70;99.90
41720;DHT22;27405;53.316;-6.294;2023-11-21T12:11:50;9.80;99.90
41720;DHT22;27405;53.316;-6.294;2023-11-21T12:14:17;9.90;99.90
41720;DHT22;27405;53.316;-6.294;2023-11-21T12:16:43;9.90;99.90
41720;DHT22;27405;53.316;-6.294;2023-11-21T12:19:13;9.90;99.90
41720;DHT22;27405;53.316;-6.294;2023-11-21T12:21:39;9.90;99.90
41720;DHT22;27405;53.316;-6.294;2023-11-21T12:24:08;9.90;99.90
41720;DHT22;27405;53.316;-6.294;2023-11-21T12:26:37;9.80;99.90
41720;DHT22;27405;53.316;-6.294;2023-11-21T12:29:04;9.90;99.90
41720;DHT22;27405;53.316;-6.294;2023-11-21T12:31:34;9.90;99.90
41720;DHT22;27405;53.316;-6.294;2023-11-21T12:34:03;9.90;99.90
41720;DHT22;27405;53.316;-6.294;2023-11-21T12:36:30;9.90;99.90
41720;DHT22;27405;53.316;-6.294;2023-11-21T12:38:56;10.00;99.90
41720;DHT22;27405;53.316;-6.294;2023-11-21T12:41:23;10.10;99.90
41720;DHT22;27405;53.316;-6.294;2023-11-21T12:43:49;10.10;99.90
41720;DHT22;27405;53.316;-6.294;2023-11-21T12:46:15;10.20;99.90
41720;DHT22;27405;53.316;-6.294;2023-11-21T12:48:44;10.30;99.90
41720;DHT22;27405;53.316;-6.294;2023-11-21T12:51:12;10.40;99.90
41720;DHT22;27405;53.316;-6.294;2023-11-21T12:53:40;10.40;99.90
41720;DHT22;27405;53.316;-6.294;2023-11-21T12:56:07;10.40;99.90
41720;DHT22;27405;53.316;-6.294;2023-11-21T12:58:38;10.40;99.90
41720;DHT22;27405;53.316;-6.294;2023-11-21T13:01:08;10.40;99.90
41720;DHT22;27405;53.316;-6.294;2023-11-21T13:03:47;10.50;99.90
41720;DHT22;27405;53.316;-6.294;2023-11-21T13:06:15;10.50;99.90
41720;DHT22;27405;53.316;-6.294;2023-11-21T13:08:41;10.40;99.90
41720;DHT22;27405;53.316;-6.294;2023-11-21T13:11:11;10.40;99.90
41720;DHT22;27405;53.316;-6.294;2023-11-21T13:13:41;10.40;99.90
41720;DHT22;27405;53.316;-6.294;2023-11-21T13:16:08;10.40;99.90
41720;DHT22;27405;53.316;-6.294;2023-11-21T13:18:35;10.40;99.90
41720;DHT22;27405;53.316;-6.294;2023-11-21T13:21:03;10.40;99.90
41720;DHT22;27405;53.316;-6.294;2023-11-21T13:23:35;10.30;99.90
41720;DHT22;27405;53.316;-6.294;2023-11-21T13:26:03;10.40;99.90
41720;DHT22;27405;53.316;-6.294;2023-11-21T13:28:30;10.40;99.90
41720;DHT22;27405;53.316;-6.294;2023-11-21T13:30:58;10.30;99.90
41720;DHT22;27405;53.316;-6.294;2023-11-21T13:33:28;10.30;99.90
41720;DHT22;27405;53.316;-6.294;2023-11-21T13:35:55;10.40;99.90
41720;DHT22;27405;53.316;-6.294;2023-11-21T13:38:22;10.40;99.90
41720;DHT22;27405;53.316;-6.294;2023-11-21T13:40:52;10.40;99.90
41720;DHT22;27405;53.316;-6.294;2023-11-21T13:43:23;10.40;99.90
41720;DHT22;27405;53.316;-6.294;2023-11-21T13:45:52;10.40;99.90
41720;DHT22;27405;53.316;-6.294;2023-11-21T13:48:26;10.40;99.90
41720;DHT22;27405;53.316;-6.294;2023-11-21T13:51:00;10.40;99.90
41720;DHT22;27405;53.316;-6.294;2023-11-21T13:53:34;10.30;99.90
41720;DHT22;27405;53.316;-6.294;2023-11-21T13:56:03;10.30;99.90
41720;DHT22;27405;53.316;-6.294;2023-11-21T13:58:29;10.20;99.90
41720;DHT22;27405;53.316;-6.294;2023-11-21T14:01:21;10.20;99.90
41720;DHT22;27405;53.316;-6.294;2023-11-21T14:04:07;10.20;99.90
41720;DHT22;27405;53.316;-6.294;2023-11-21T14:06:49;10.10;99.90
41720;DHT22;27405;53.316;-6.294;2023-11-21T14:09:19;10.10;99.90
41720;DHT22;27405;53.316;-6.294;2023-11-21T14:11:58;10.20;99.90
41720;DHT22;27405;53.316;-6.294;2023-11-21T14:14:26;10.20;99.90
41720;DHT22;27405;53.316;-6.294;2023-11-21T14:16:55;10.20;99.90
41720;DHT22;27405;53.316;-6.294;2023-11-21T14:19:21;10.30;99.90
41720;DHT22;27405;53.316;-6.294;2023-11-21T14:21:52;10.30;99.90
41720;DHT22;27405;53.316;-6.294;2023-11-21T14:24:18;10.30;99.90
41720;DHT22;27405;53.316;-6.294;2023-11-21T14:26:46;10.40;99.90
41720;DHT22;27405;53.316;-6.294;2023-11-21T14:29:13;10.40;99.90
41720;DHT22;27405;53.316;-6.294;2023-11-21T14:31:41;10.40;99.90
41720;DHT22;27405;53.316;-6.294;2023-11-21T14:34:08;10.40;99.90
41720;DHT22;27405;53.316;-6.294;2023-11-21T14:36:34;10.30;99.90
41720;DHT22;27405;53.316;-6.294;2023-11-21T14:39:02;10.30;99.90
41720;DHT22;27405;53.316;-6.294;2023-11-21T14:41:33;10.30;99.90
41720;DHT22;27405;53.316;-6.294;2023-11-21T14:44:01;10.30;99.90
41720;DHT22;27405;53.316;-6.294;2023-11-21T14:46:29;10.30;99.90
41720;DHT22;27405;53.316;-6.294;2023-11-21T14:48:55;10.30;99.90
41720;DHT22;27405;53.316;-6.294;2023-11-21T14:51:39;10.30;99.90
41720;DHT22;27405;53.316;-6.294;2023-11-21T14:54:25;10.30;99.90
41720;DHT22;27405;53.316;-6.294;2023-11-21T14:57:09;10.30;99.90
41720;DHT22;27405;53.316;-6.294;2023-11-21T14:59:42;10.30;99.90
41720;DHT22;27405;53.316;-6.294;2023-11-21T15:02:08;10.30;99.90
41720;DHT22;27405;53.316;-6.294;2023-11-21T15:04:42;10.30;99.90
41720;DHT22;27405;53.316;-6.294;2023-11-21T15:07:09;10.30;99.90
41720;DHT22;27405;53.316;-6.294;2023-11-21T15:09:36;10.30;99.90
41720;DHT22;27405;53.316;-6.294;2023-11-21T15:12:12;10.30;99.90
41720;DHT22;27405;53.316;-6.294;2023-11-21T15:14:45;10.20;99.90
41720;DHT22;27405;53.316;-6.294;2023-11-21T15:17:15;10.20;99.90
41720;DHT22;27405;53.316;-6.294;2023-11-21T15:20:02;10.20;99.90
41720;DHT22;27405;53.316;-6.294;2023-11-21T15:22:30;10.20;99.90
41720;DHT22;27405;53.316;-6.294;2023-11-21T15:24:55;10.10;99.90
41720;DHT22;27405;53.316;-6.294;2023-11-21T15:27:23;10.10;99.90
41720;DHT22;27405;53.316;-6.294;2023-11-21T15:29:50;10.10;99.90
41720;DHT22;27405;53.316;-6.294;2023-11-21T15:32:16;10.10;99.90
41720;DHT22;27405;53.316;-6.294;2023-11-21T15:34:42;10.10;99.90
41720;DHT22;27405;53.316;-6.294;2023-11-21T15:37:08;10.10;99.90
41720;DHT22;27405;53.316;-6.294;2023-11-21T15:39:40;10.10;99.90
41720;DHT22;27405;53.316;-6.294;2023-11-21T15:42:07;10.10;99.90
41720;DHT22;27405;53.316;-6.294;2023-11-21T15:47:54;10.00;99.90
41720;DHT22;27405;53.316;-6.294;2023-11-21T15:50:22;10.00;99.90
41720;DHT22;27405;53.316;-6.294;2023-11-21T15:52:50;9.90;99.90
41720;DHT22;27405;53.316;-6.294;2023-11-21T15:55:16;9.90;99.90
41720;DHT22;27405;53.316;-6.294;2023-11-21T15:57:43;9.90;99.90
41720;DHT22;27405;53.316;-6.294;2023-11-21T16:00:09;9.90;99.90
41720;DHT22;27405;53.316;-6.294;2023-11-21T16:02:42;9.90;99.90
41720;DHT22;27405;53.316;-6.294;2023-11-21T16:05:09;9.90;99.90
41720;DHT22;27405;53.316;-6.294;2023-11-21T16:07:35;9.80;99.90
41720;DHT22;27405;53.316;-6.294;2023-11-21T16:10:02;9.80;99.90
41720;DHT22;27405;53.316;-6.294;2023-11-21T16:12:29;9.80;99.90
41720;DHT22;27405;53.316;-6.294;2023-11-21T16:14:55;9.80;99.90
41720;DHT22;27405;53.316;-6.294;2023-11-21T16:17:21;9.80;99.90
41720;DHT22;27405;53.316;-6.294;2023-11-21T16:19:47;9.80;99.90
41720;DHT22;27405;53.316;-6.294;2023-11-21T16:22:13;9.70;99.90
41720;DHT22;27405;53.316;-6.294;2023-11-21T16:24:40;9.70;99.90
41720;DHT22;27405;53.316;-6.294;2023-11-21T16:27:06;9.70;99.90
41720;DHT22;27405;53.316;-6.294;2023-11-21T16:29:35;9.70;99.90